createdAt,value
2022-12-25T00:01:59.318Z,9.57
2022-12-25T00:04:28.186Z,9.56
2022-12-25T00:06:55.655Z,9.55
2022-12-25T00:09:21.999Z,9.58
2022-12-25T00:11:48.428Z,9.61
2022-12-25T00:14:14.757Z,9.63
2022-12-25T00:16:41.258Z,9.63
2022-12-25T00:19:07.558Z,9.64
2022-12-25T00:21:35.245Z,9.65
2022-12-25T00:24:01.936Z,9.64
2022-12-25T00:26:30.579Z,9.64
2022-12-25T00:28:57.864Z,9.68
2022-12-25T00:31:24.870Z,9.72
2022-12-25T00:33:51.791Z,9.72
2022-12-25T00:36:19.531Z,9.73
2022-12-25T00:38:55.263Z,9.74
2022-12-25T00:41:44.306Z,9.75
2022-12-25T00:44:12.594Z,9.77
2022-12-25T00:46:39.535Z,9.77
2022-12-25T00:49:08.577Z,9.78
2022-12-25T00:51:34.868Z,9.80
2022-12-25T00:54:01.227Z,9.83
2022-12-25T00:56:27.561Z,9.82
2022-12-25T00:58:56.734Z,9.84
2022-12-25T01:01:29.456Z,9.88
2022-12-25T01:03:56.063Z,9.87
2022-12-25T01:06:24.176Z,9.86
2022-12-25T01:09:16.691Z,9.90
2022-12-25T01:11:52.809Z,9.89
2022-12-25T01:14:19.304Z,9.92
2022-12-25T01:16:45.858Z,9.92
2022-12-25T01:19:12.185Z,9.91
2022-12-25T01:21:38.647Z,9.90
2022-12-25T01:24:05.284Z,9.90
2022-12-25T01:26:31.517Z,9.87
2022-12-25T01:28:59.644Z,9.88
2022-12-25T01:31:26.062Z,9.91
2022-12-25T01:33:52.792Z,9.93
2022-12-25T01:36:23.678Z,9.97
2022-12-25T01:38:50.181Z,9.95
2022-12-25T01:41:17.419Z,9.94
2022-12-25T01:44:08.005Z,9.91
2022-12-25T01:46:34.963Z,9.92
2022-12-25T01:49:14.641Z,9.92
2022-12-25T01:51:43.193Z,9.95
2022-12-25T01:54:13.141Z,9.97
2022-12-25T01:56:40.324Z,9.96
2022-12-25T01:59:06.845Z,10.00
2022-12-25T02:01:33.327Z,9.99
2022-12-25T02:04:05.614Z,9.99
2022-12-25T02:06:33.274Z,9.98
2022-12-25T02:08:59.783Z,9.99
2022-12-25T02:11:44.655Z,10.01
2022-12-25T02:14:11.195Z,10.00
2022-12-25T02:16:56.694Z,10.00
2022-12-25T02:19:27.481Z,10.00
2022-12-25T02:21:53.808Z,9.99
2022-12-25T02:24:23.404Z,9.98
2022-12-25T02:26:55.862Z,9.96
2022-12-25T02:29:29.381Z,9.96
2022-12-25T02:31:55.930Z,9.93
2022-12-25T02:34:29.430Z,9.89
2022-12-25T02:37:15.748Z,9.87
2022-12-25T02:40:00.828Z,9.87
2022-12-25T02:42:59.028Z,9.88
2022-12-25T02:45:47.167Z,9.87
2022-12-25T02:48:33.384Z,9.86
2022-12-25T02:51:23.358Z,9.84
2022-12-25T02:54:10.721Z,9.82
2022-12-25T02:56:58.762Z,9.83
2022-12-25T02:59:43.978Z,9.81
2022-12-25T03:02:31.780Z,9.79
2022-12-25T03:05:18.473Z,9.77
2022-12-25T03:07:47.832Z,9.75
2022-12-25T03:10:33.628Z,9.73
2022-12-25T03:13:06.133Z,9.78
2022-12-25T03:15:52.428Z,9.80
2022-12-25T03:18:34.324Z,9.83
2022-12-25T03:21:19.712Z,9.84
2022-12-25T03:24:07.797Z,9.85
2022-12-25T03:26:53.272Z,9.87
2022-12-25T03:29:38.448Z,9.89
2022-12-25T03:32:10.634Z,9.94
2022-12-25T03:35:14.736Z,9.95
2022-12-25T03:38:07.808Z,9.96
2022-12-25T03:40:58.883Z,9.97
2022-12-25T03:43:59.769Z,10.00
2022-12-25T03:46:48.202Z,10.01
2022-12-25T03:49:40.023Z,10.04
2022-12-25T03:52:27.120Z,10.05
2022-12-25T03:55:20.400Z,10.05
2022-12-25T03:58:05.227Z,10.08
2022-12-25T04:00:50.168Z,10.10
2022-12-25T04:03:34.988Z,10.15
2022-12-25T04:06:20.028Z,10.18
2022-12-25T04:09:05.234Z,10.17
2022-12-25T04:11:49.985Z,10.20
2022-12-25T04:14:34.926Z,10.19
2022-12-25T04:17:19.639Z,10.06
2022-12-25T04:20:04.505Z,10.05
2022-12-25T04:22:49.358Z,10.20
2022-12-25T04:25:34.359Z,10.23
2022-12-25T04:28:20.256Z,10.21
2022-12-25T04:31:05.881Z,10.19
2022-12-25T04:33:51.089Z,10.21
2022-12-25T04:36:17.413Z,10.23
2022-12-25T04:38:43.876Z,10.23
2022-12-25T04:41:11.397Z,10.22
2022-12-25T04:43:38.117Z,10.18
2022-12-25T04:46:05.620Z,10.21
2022-12-25T04:48:33.751Z,10.23
2022-12-25T04:51:09.737Z,10.23
2022-12-25T04:53:36.071Z,10.24
2022-12-25T04:56:03.170Z,10.27
2022-12-25T04:58:30.969Z,10.29
2022-12-25T05:00:59.237Z,10.27
2022-12-25T05:03:28.034Z,10.28
2022-12-25T05:05:54.832Z,10.29
2022-12-25T05:08:21.604Z,10.29
2022-12-25T05:10:48.157Z,10.31
2022-12-25T05:13:15.011Z,10.32
2022-12-25T05:15:42.729Z,10.31
2022-12-25T05:18:09.324Z,10.30
2022-12-25T05:20:40.005Z,10.30
2022-12-25T05:23:06.829Z,10.32
2022-12-25T05:25:34.539Z,10.31
2022-12-25T05:28:03.512Z,10.32
2022-12-25T05:30:29.873Z,10.31
2022-12-25T05:32:56.524Z,10.32
2022-12-25T05:35:22.890Z,10.31
2022-12-25T05:37:49.235Z,10.28
2022-12-25T05:40:15.545Z,10.27
2022-12-25T05:42:41.893Z,10.26
2022-12-25T05:45:08.420Z,10.26
2022-12-25T05:47:34.667Z,10.25
2022-12-25T05:50:01.075Z,10.24
2022-12-25T05:52:30.852Z,10.22
2022-12-25T05:54:57.541Z,10.21
2022-12-25T05:57:23.792Z,10.20
2022-12-25T05:59:50.176Z,10.21
2022-12-25T06:02:16.652Z,10.21
2022-12-25T06:04:43.029Z,10.21
2022-12-25T06:07:10.431Z,10.21
2022-12-25T06:09:38.046Z,10.21
2022-12-25T06:12:04.399Z,10.20
2022-12-25T06:14:32.488Z,10.19
2022-12-25T06:16:59.213Z,10.16
2022-12-25T06:19:25.653Z,10.13
2022-12-25T06:21:55.777Z,10.13
2022-12-25T06:24:23.028Z,10.14
2022-12-25T06:26:52.441Z,10.16
2022-12-25T06:29:18.742Z,10.19
2022-12-25T06:31:46.340Z,10.22
2022-12-25T06:34:16.332Z,10.21
2022-12-25T06:36:42.792Z,10.22
2022-12-25T06:39:09.533Z,10.20
2022-12-25T06:41:37.415Z,10.20
2022-12-25T06:44:05.167Z,10.10
2022-12-25T06:46:31.634Z,10.15
2022-12-25T06:48:58.699Z,10.16
2022-12-25T06:51:27.245Z,10.16
2022-12-25T06:53:53.635Z,10.15
2022-12-25T06:56:24.221Z,10.16
2022-12-25T06:59:11.009Z,10.17
2022-12-25T07:01:43.757Z,10.14
2022-12-25T07:04:14.058Z,10.15
2022-12-25T07:06:46.530Z,10.17
2022-12-25T07:09:13.904Z,10.17
2022-12-25T07:11:40.231Z,10.17
2022-12-25T07:14:06.548Z,10.19
2022-12-25T07:16:33.012Z,10.17
2022-12-25T07:19:00.683Z,10.17
2022-12-25T07:21:27.160Z,10.21
2022-12-25T07:23:53.776Z,10.23
2022-12-25T07:26:22.850Z,10.25
2022-12-25T07:28:49.126Z,10.24
2022-12-25T07:31:16.358Z,10.26
2022-12-25T07:33:42.968Z,10.29
2022-12-25T07:36:10.242Z,10.31
2022-12-25T07:38:39.412Z,10.33
2022-12-25T07:41:09.709Z,10.37
2022-12-25T07:43:36.048Z,10.39
2022-12-25T07:46:04.485Z,10.42
2022-12-25T07:48:31.370Z,10.39
2022-12-25T07:51:09.499Z,10.42
2022-12-25T07:53:36.376Z,10.43
2022-12-25T07:56:04.479Z,10.45
2022-12-25T07:58:30.971Z,10.42
2022-12-25T08:01:02.545Z,10.42
2022-12-25T08:03:29.298Z,10.39
2022-12-25T08:05:58.688Z,10.39
2022-12-25T08:08:25.001Z,10.39
2022-12-25T08:10:51.260Z,10.38
2022-12-25T08:13:17.593Z,10.36
2022-12-25T08:15:44.024Z,10.32
2022-12-25T08:18:10.378Z,10.30
2022-12-25T08:20:36.689Z,10.25
2022-12-25T08:23:03.873Z,10.24
2022-12-25T08:25:30.458Z,10.24
2022-12-25T08:27:56.746Z,10.25
2022-12-25T08:30:23.082Z,10.26
2022-12-25T08:32:49.376Z,10.26
2022-12-25T08:35:21.978Z,10.28
2022-12-25T08:37:48.438Z,10.27
2022-12-25T08:40:16.275Z,10.27
2022-12-25T08:42:48.331Z,10.32
2022-12-25T08:45:14.752Z,10.38
2022-12-25T08:47:41.064Z,10.40
2022-12-25T08:50:07.749Z,10.43
2022-12-25T08:52:34.497Z,10.46
2022-12-25T08:55:01.049Z,10.49
2022-12-25T08:57:27.332Z,10.49
2022-12-25T08:59:56.097Z,10.50
2022-12-25T09:02:22.463Z,10.50
2022-12-25T09:04:48.876Z,10.55
2022-12-25T09:07:15.202Z,10.57
2022-12-25T09:09:43.450Z,10.57
2022-12-25T09:12:09.746Z,10.57
2022-12-25T09:14:36.242Z,10.56
2022-12-25T09:17:04.081Z,10.57
2022-12-25T09:19:31.118Z,10.59
2022-12-25T09:21:57.442Z,10.59
2022-12-25T09:24:23.847Z,10.57
2022-12-25T09:26:50.260Z,10.55
2022-12-25T09:29:17.857Z,10.56
2022-12-25T09:31:44.285Z,10.57
2022-12-25T09:34:16.955Z,10.60
2022-12-25T09:36:45.048Z,10.60
2022-12-25T09:39:11.435Z,10.60
2022-12-25T09:41:46.857Z,10.60
2022-12-25T09:44:16.304Z,10.57
2022-12-25T09:46:45.656Z,10.61
2022-12-25T09:49:16.939Z,10.62
2022-12-25T09:51:45.277Z,10.58
2022-12-25T09:54:18.873Z,10.59
2022-12-25T09:56:45.147Z,10.59
2022-12-25T09:59:21.039Z,10.63
2022-12-25T10:01:50.444Z,10.66
2022-12-25T10:04:16.781Z,10.64
2022-12-25T10:06:48.876Z,10.63
2022-12-25T10:09:18.483Z,10.67
2022-12-25T10:11:50.707Z,10.64
2022-12-25T10:14:26.144Z,10.65
2022-12-25T10:17:11.960Z,10.67
2022-12-25T10:19:38.294Z,10.69
2022-12-25T10:22:13.138Z,10.70
2022-12-25T10:24:54.183Z,10.75
2022-12-25T10:27:31.267Z,10.77
2022-12-25T10:29:58.603Z,10.79
2022-12-25T10:32:24.923Z,10.78
2022-12-25T10:34:51.376Z,10.77
2022-12-25T10:37:17.676Z,10.76
2022-12-25T10:39:46.900Z,10.78
2022-12-25T10:42:23.587Z,10.79
2022-12-25T10:45:08.146Z,10.79
2022-12-25T10:47:38.047Z,10.79
2022-12-25T10:50:24.662Z,10.77
2022-12-25T10:52:56.126Z,10.76
2022-12-25T10:55:28.392Z,10.74
2022-12-25T10:57:57.718Z,10.73
2022-12-25T11:00:31.241Z,10.72
2022-12-25T11:02:57.884Z,10.74
2022-12-25T11:05:32.236Z,10.78
2022-12-25T11:08:00.550Z,10.80
2022-12-25T11:10:32.865Z,10.82
2022-12-25T11:12:59.894Z,10.85
2022-12-25T11:15:35.816Z,10.87
2022-12-25T11:18:02.961Z,10.85
2022-12-25T11:20:29.782Z,10.82
2022-12-25T11:22:56.133Z,10.81
2022-12-25T11:25:26.869Z,10.79
2022-12-25T11:28:01.167Z,10.82
2022-12-25T11:30:28.916Z,10.80
2022-12-25T11:32:58.715Z,10.81
2022-12-25T11:35:27.819Z,10.81
2022-12-25T11:37:54.313Z,10.82
2022-12-25T11:40:23.777Z,10.81
2022-12-25T11:42:55.180Z,10.81
2022-12-25T11:45:27.124Z,10.79
2022-12-25T11:47:58.943Z,10.77
2022-12-25T11:50:25.248Z,10.81
2022-12-25T11:52:52.123Z,10.84
2022-12-25T11:55:31.070Z,10.88
2022-12-25T11:57:59.599Z,10.91
2022-12-25T12:00:27.486Z,10.92
2022-12-25T12:03:01.346Z,10.92
2022-12-25T12:05:45.264Z,10.92
2022-12-25T12:08:13.791Z,10.91
2022-12-25T12:10:54.443Z,10.89
2022-12-25T12:13:20.739Z,10.90
2022-12-25T12:15:48.119Z,10.91
2022-12-25T12:18:29.970Z,10.93
2022-12-25T12:20:59.127Z,10.94
2022-12-25T12:23:25.748Z,10.92
2022-12-25T12:25:52.564Z,10.92
2022-12-25T12:28:32.658Z,10.95
2022-12-25T12:31:06.069Z,10.97
2022-12-25T12:33:37.860Z,10.96
2022-12-25T12:36:05.400Z,10.97
2022-12-25T12:38:32.590Z,10.94
2022-12-25T12:40:58.894Z,10.92
2022-12-25T12:43:30.700Z,10.92
2022-12-25T12:46:00.997Z,10.95
2022-12-25T12:48:28.319Z,10.95
2022-12-25T12:51:08.669Z,10.95
2022-12-25T12:53:38.348Z,10.97
2022-12-25T12:56:27.714Z,10.98
2022-12-25T12:59:13.934Z,10.96
2022-12-25T13:02:15.560Z,10.93
2022-12-25T13:04:48.811Z,10.92
2022-12-25T13:07:34.012Z,10.90
2022-12-25T13:10:19.262Z,10.85
2022-12-25T13:12:45.996Z,10.82
2022-12-25T13:15:13.747Z,10.79
2022-12-25T13:17:42.934Z,10.80
2022-12-25T13:20:18.269Z,10.82
2022-12-25T13:22:50.652Z,10.83
2022-12-25T13:25:22.637Z,10.80
2022-12-25T13:27:57.353Z,10.76
2022-12-25T13:30:35.121Z,10.73
2022-12-25T13:33:03.781Z,10.75
2022-12-25T13:35:33.504Z,10.73
2022-12-25T13:38:01.480Z,10.73
2022-12-25T13:40:28.490Z,10.74
2022-12-25T13:42:58.496Z,10.75
2022-12-25T13:45:29.785Z,10.75
2022-12-25T13:47:56.903Z,10.75
2022-12-25T13:50:23.303Z,10.73
2022-12-25T13:52:50.640Z,10.73
2022-12-25T13:55:24.624Z,10.74
2022-12-25T13:57:52.756Z,10.77
2022-12-25T14:00:24.247Z,10.76
2022-12-25T14:02:51.341Z,10.75
2022-12-25T14:05:42.263Z,10.70
2022-12-25T14:08:17.473Z,10.72
2022-12-25T14:10:45.927Z,10.70
2022-12-25T14:13:19.320Z,10.68
2022-12-25T14:15:47.796Z,10.66
2022-12-25T14:18:18.577Z,10.65
2022-12-25T14:21:03.731Z,10.63
2022-12-25T14:23:37.568Z,10.62
2022-12-25T14:26:04.119Z,10.63
2022-12-25T14:28:32.991Z,10.65
2022-12-25T14:31:02.793Z,10.65
2022-12-25T14:33:35.218Z,10.66
2022-12-25T14:36:01.988Z,10.66
2022-12-25T14:38:30.405Z,10.65
2022-12-25T14:41:09.267Z,10.66
2022-12-25T14:43:43.411Z,10.68
2022-12-25T14:46:22.215Z,10.67
2022-12-25T14:48:58.053Z,10.68
2022-12-25T14:51:24.905Z,10.69
2022-12-25T14:53:53.250Z,10.70
2022-12-25T14:56:20.916Z,10.70
2022-12-25T14:58:49.955Z,10.66
2022-12-25T15:01:27.891Z,10.66
2022-12-25T15:04:04.072Z,10.66
2022-12-25T15:06:31.135Z,10.67
2022-12-25T15:09:02.352Z,10.66
2022-12-25T15:11:28.799Z,10.67
2022-12-25T15:13:55.267Z,10.67
2022-12-25T15:16:33.934Z,10.65
2022-12-25T15:19:02.199Z,10.69
2022-12-25T15:21:29.730Z,10.72
2022-12-25T15:23:59.657Z,10.71
2022-12-25T15:26:27.608Z,10.73
2022-12-25T15:28:53.965Z,10.73
2022-12-25T15:31:25.810Z,10.73
2022-12-25T15:33:52.931Z,10.75
2022-12-25T15:36:19.384Z,10.76
2022-12-25T15:38:45.768Z,10.76
2022-12-25T15:41:33.568Z,10.77
2022-12-25T15:44:00.222Z,10.78
2022-12-25T15:46:26.889Z,10.77
2022-12-25T15:48:53.476Z,10.76
2022-12-25T15:51:19.872Z,10.76
2022-12-25T15:53:46.213Z,10.74
2022-12-25T15:56:12.683Z,10.73
2022-12-25T15:58:39.056Z,10.72
2022-12-25T16:01:10.890Z,10.64
2022-12-25T16:03:37.864Z,10.74
2022-12-25T16:06:04.239Z,10.72
2022-12-25T16:08:31.657Z,10.73
2022-12-25T16:10:58.014Z,10.72
2022-12-25T16:13:24.330Z,10.74
2022-12-25T16:15:52.360Z,10.73
2022-12-25T16:18:18.740Z,10.74
2022-12-25T16:20:45.136Z,10.75
2022-12-25T16:23:11.779Z,10.74
2022-12-25T16:25:38.219Z,10.74
2022-12-25T16:28:09.546Z,10.75
2022-12-25T16:30:36.787Z,10.71
2022-12-25T16:33:03.155Z,10.70
2022-12-25T16:35:29.743Z,10.69
2022-12-25T16:37:56.139Z,10.68
2022-12-25T16:40:22.516Z,10.67
2022-12-25T16:42:51.984Z,10.68
2022-12-25T16:45:18.332Z,10.66
2022-12-25T16:47:44.674Z,10.65
2022-12-25T16:50:13.881Z,10.60
2022-12-25T16:52:43.116Z,10.60
2022-12-25T16:55:09.705Z,10.64
2022-12-25T16:57:36.120Z,10.66
2022-12-25T17:00:03.993Z,10.69
2022-12-25T17:02:30.497Z,10.71
2022-12-25T17:04:56.952Z,10.72
2022-12-25T17:07:23.286Z,10.73
2022-12-25T17:09:49.880Z,10.74
2022-12-25T17:12:16.361Z,10.77
2022-12-25T17:14:42.818Z,10.77
2022-12-25T17:17:09.073Z,10.76
2022-12-25T17:19:35.416Z,10.78
2022-12-25T17:22:01.850Z,10.78
2022-12-25T17:24:29.046Z,10.78
2022-12-25T17:26:55.534Z,10.80
2022-12-25T17:29:22.901Z,10.80
2022-12-25T17:31:49.432Z,10.83
2022-12-25T17:34:19.108Z,10.82
2022-12-25T17:36:45.498Z,10.80
2022-12-25T17:39:12.130Z,10.81
2022-12-25T17:41:38.530Z,10.83
2022-12-25T17:44:04.868Z,10.84
2022-12-25T17:46:31.434Z,10.85
2022-12-25T17:49:00.808Z,10.86
2022-12-25T17:51:30.020Z,10.86
2022-12-25T17:53:58.128Z,10.87
2022-12-25T17:56:24.883Z,10.87
2022-12-25T17:58:52.532Z,10.87
2022-12-25T18:01:19.912Z,10.87
2022-12-25T18:03:46.415Z,10.86
2022-12-25T18:06:14.019Z,10.87
2022-12-25T18:08:41.217Z,10.88
2022-12-25T18:11:10.920Z,10.88
2022-12-25T18:13:37.590Z,10.89
2022-12-25T18:16:04.942Z,10.90
2022-12-25T18:18:32.514Z,10.91
2022-12-25T18:20:59.233Z,10.91
2022-12-25T18:23:25.718Z,10.91
2022-12-25T18:25:52.108Z,10.89
2022-12-25T18:28:18.917Z,10.87
2022-12-25T18:30:45.921Z,10.85
2022-12-25T18:33:12.681Z,10.84
2022-12-25T18:35:40.649Z,10.82
2022-12-25T18:38:10.103Z,10.83
2022-12-25T18:40:43.061Z,10.85
2022-12-25T18:43:11.539Z,10.84
2022-12-25T18:45:38.315Z,10.82
2022-12-25T18:48:06.297Z,10.83
2022-12-25T18:50:34.332Z,10.83
2022-12-25T18:53:04.492Z,10.82
2022-12-25T18:55:31.753Z,10.82
2022-12-25T18:57:58.187Z,10.83
2022-12-25T19:00:25.041Z,10.85
2022-12-25T19:02:56.129Z,10.85
2022-12-25T19:05:23.854Z,10.85
2022-12-25T19:07:50.189Z,10.87
2022-12-25T19:10:16.521Z,10.89
2022-12-25T19:12:46.007Z,10.90
2022-12-25T19:15:12.729Z,10.92
2022-12-25T19:17:39.044Z,10.94
2022-12-25T19:20:06.520Z,10.95
2022-12-25T19:22:33.075Z,10.96
2022-12-25T19:24:59.470Z,10.96
2022-12-25T19:27:26.275Z,10.97
2022-12-25T19:29:52.787Z,10.97
2022-12-25T19:32:19.262Z,10.97
2022-12-25T19:34:47.143Z,10.98
2022-12-25T19:37:15.161Z,10.99
2022-12-25T19:39:46.458Z,10.99
2022-12-25T19:42:16.226Z,10.98
2022-12-25T19:44:43.493Z,10.97
2022-12-25T19:47:10.643Z,10.97
2022-12-25T19:49:37.519Z,10.97
2022-12-25T19:52:04.241Z,10.99
2022-12-25T19:54:31.255Z,10.98
2022-12-25T19:56:57.651Z,10.99
2022-12-25T19:59:24.071Z,10.98
2022-12-25T20:01:50.662Z,10.97
2022-12-25T20:04:18.815Z,10.98
2022-12-25T20:06:45.557Z,10.99
2022-12-25T20:09:20.620Z,10.99
2022-12-25T20:11:51.076Z,11.02
2022-12-25T20:14:20.128Z,11.02
2022-12-25T20:16:47.240Z,11.02
2022-12-25T20:19:14.514Z,11.05
2022-12-25T20:21:41.395Z,11.05
2022-12-25T20:24:10.115Z,11.06
2022-12-25T20:26:36.797Z,11.04
2022-12-25T20:29:03.230Z,11.06
2022-12-25T20:31:31.657Z,11.05
2022-12-25T20:33:59.892Z,11.05
2022-12-25T20:36:29.677Z,11.05
2022-12-25T20:39:02.481Z,11.07
2022-12-25T20:41:29.887Z,11.07
2022-12-25T20:43:57.149Z,11.07
2022-12-25T20:46:24.410Z,11.10
2022-12-25T20:48:51.852Z,11.10
2022-12-25T20:51:20.015Z,11.13
2022-12-25T20:53:51.650Z,11.16
2022-12-25T20:56:20.236Z,11.15
2022-12-25T20:58:46.863Z,11.16
2022-12-25T21:01:15.177Z,11.14
2022-12-25T21:03:42.060Z,11.13
2022-12-25T21:06:09.049Z,11.09
2022-12-25T21:08:36.940Z,11.07
2022-12-25T21:11:06.418Z,11.07
2022-12-25T21:13:34.410Z,11.07
2022-12-25T21:16:01.385Z,10.97
2022-12-25T21:18:28.314Z,11.07
2022-12-25T21:20:58.871Z,11.06
2022-12-25T21:23:28.755Z,11.03
2022-12-25T21:25:55.212Z,11.03
2022-12-25T21:28:23.756Z,11.04
2022-12-25T21:30:50.208Z,10.94
2022-12-25T21:33:35.551Z,11.07
2022-12-25T21:36:06.174Z,11.08
2022-12-25T21:38:35.293Z,11.09
2022-12-25T21:41:02.710Z,11.10
2022-12-25T21:43:29.253Z,11.11
2022-12-25T21:45:55.640Z,11.10
2022-12-25T21:48:22.073Z,11.04
2022-12-25T21:51:07.115Z,11.09
2022-12-25T21:53:33.560Z,11.07
2022-12-25T21:56:02.229Z,11.04
2022-12-25T21:58:29.050Z,11.02
2022-12-25T22:00:55.695Z,11.01
2022-12-25T22:03:23.101Z,10.99
2022-12-25T22:06:08.133Z,10.96
2022-12-25T22:08:34.640Z,10.93
2022-12-25T22:11:04.317Z,10.91
2022-12-25T22:13:49.253Z,10.91
2022-12-25T22:16:34.800Z,10.93
2022-12-25T22:19:20.945Z,10.94
2022-12-25T22:21:47.286Z,10.94
2022-12-25T22:24:14.104Z,10.93
2022-12-25T22:26:44.820Z,10.92
2022-12-25T22:29:11.285Z,10.90
2022-12-25T22:31:46.751Z,10.88
2022-12-25T22:34:15.172Z,10.88
2022-12-25T22:36:41.605Z,10.88
2022-12-25T22:39:08.020Z,10.87
2022-12-25T22:41:34.985Z,10.87
2022-12-25T22:44:18.561Z,10.89
2022-12-25T22:46:48.404Z,10.92
2022-12-25T22:49:16.467Z,10.92
2022-12-25T22:51:43.836Z,10.90
2022-12-25T22:54:31.003Z,10.91
2022-12-25T22:56:58.020Z,10.90
2022-12-25T22:59:24.435Z,10.89
2022-12-25T23:01:59.972Z,10.91
2022-12-25T23:04:26.828Z,10.92
2022-12-25T23:06:53.171Z,10.92
2022-12-25T23:09:24.941Z,10.91
2022-12-25T23:11:51.350Z,10.91
2022-12-25T23:14:36.252Z,10.90
2022-12-25T23:17:05.635Z,10.83
2022-12-25T23:19:50.816Z,10.81
2022-12-25T23:22:36.340Z,10.79
2022-12-25T23:25:21.621Z,10.77
2022-12-25T23:27:48.218Z,10.77
2022-12-25T23:30:15.939Z,10.77
2022-12-25T23:32:42.942Z,10.77
2022-12-25T23:35:10.204Z,10.75
2022-12-25T23:37:36.657Z,10.72
2022-12-25T23:40:06.268Z,10.73
2022-12-25T23:42:35.758Z,10.72
2022-12-25T23:45:02.666Z,10.72
2022-12-25T23:47:29.097Z,10.70
2022-12-25T23:49:55.412Z,10.71
2022-12-25T23:52:28.323Z,10.72
2022-12-25T23:54:57.701Z,10.73
2022-12-25T23:57:24.222Z,10.77
2022-12-25T23:59:53.064Z,10.78
